createdAt,value
2017-02-16T00:00:31.325Z,6.6
2017-02-16T00:01:31.675Z,6.56
2017-02-16T00:02:31.739Z,6.52
2017-02-16T00:03:31.703Z,6.57
2017-02-16T00:04:31.368Z,6.52
2017-02-16T00:05:31.747Z,6.54
2017-02-16T00:06:31.740Z,6.49
2017-02-16T00:07:31.781Z,6.51
2017-02-16T00:08:31.831Z,6.51
2017-02-16T00:09:31.791Z,6.48
2017-02-16T00:10:31.380Z,6.44
2017-02-16T00:11:31.815Z,6.42
2017-02-16T00:12:31.854Z,6.51
2017-02-16T00:13:31.818Z,6.46
2017-02-16T00:14:31.445Z,6.48
2017-02-16T00:15:31.855Z,6.31
2017-02-16T00:16:31.860Z,6.42
2017-02-16T00:17:31.936Z,6.42
2017-02-16T00:18:31.902Z,6.49
2017-02-16T00:19:31.505Z,6.49
2017-02-16T00:20:31.971Z,6.33
2017-02-16T00:21:31.915Z,6.46
2017-02-16T00:22:31.195Z,6.31
2017-02-16T00:23:31.944Z,6.41
2017-02-16T00:24:31.575Z,6.42
2017-02-16T00:25:31.992Z,6.35
2017-02-16T00:26:31.986Z,6.33
2017-02-16T00:27:32.050Z,6.36
2017-02-16T00:28:32.078Z,6.36
2017-02-16T00:29:32.044Z,6.41
2017-02-16T00:30:32.083Z,6.38
2017-02-16T00:31:31.670Z,6.39
2017-02-16T00:32:32.081Z,6.36
2017-02-16T00:33:31.659Z,6.33
2017-02-16T00:34:32.127Z,6.35
2017-02-16T00:35:31.695Z,6.31
2017-02-16T00:36:32.106Z,6.33
2017-02-16T00:37:32.132Z,6.27
2017-02-16T00:38:32.136Z,6.27
2017-02-16T00:39:32.238Z,6.28
2017-02-16T00:40:32.210Z,6.31
2017-02-16T00:41:32.170Z,6.26
2017-02-16T00:42:31.802Z,6.3
2017-02-16T00:43:32.193Z,6.31
2017-02-16T00:44:32.221Z,6.27
2017-02-16T00:45:32.316Z,6.28
2017-02-16T00:46:32.222Z,6.26
2017-02-16T00:47:31.464Z,6.35
2017-02-16T00:48:32.249Z,6.36
2017-02-16T00:49:31.866Z,6.28
2017-02-16T00:50:31.874Z,6.28
2017-02-16T00:51:31.870Z,6.22
2017-02-16T00:52:31.910Z,6.31
2017-02-16T00:53:32.297Z,6.22
2017-02-16T00:54:32.335Z,6.28
2017-02-16T00:55:32.325Z,6.28
2017-02-16T00:56:31.935Z,6.24
2017-02-16T00:57:32.358Z,6.27
2017-02-16T00:58:32.374Z,6.28
2017-02-16T00:59:32.388Z,6.27
2017-02-16T01:00:32.384Z,6.16
2017-02-16T01:01:32.417Z,6.3
2017-02-16T01:02:32.425Z,6.28
2017-02-16T01:03:32.441Z,6.17
2017-02-16T01:04:32.452Z,6.24
2017-02-16T01:05:32.469Z,6.17
2017-02-16T01:06:32.471Z,6.24
2017-02-16T01:07:32.473Z,6.17
2017-02-16T01:08:32.498Z,6.16
2017-02-16T01:09:32.497Z,6.09
2017-02-16T01:10:32.628Z,6.09
2017-02-16T01:11:32.639Z,6.12
2017-02-16T01:12:32.619Z,6.12
2017-02-16T01:13:32.647Z,6.17
2017-02-16T01:14:32.645Z,6.09
2017-02-16T01:15:32.691Z,6.09
2017-02-16T01:16:32.703Z,6.14
2017-02-16T01:17:32.678Z,6.2
2017-02-16T01:18:32.213Z,6.09
2017-02-16T01:19:32.747Z,6.14
2017-02-16T01:20:32.670Z,6.08
2017-02-16T01:21:32.672Z,6.2
2017-02-16T01:22:32.682Z,6.04
2017-02-16T01:23:32.695Z,6.08
2017-02-16T01:24:32.697Z,6.04
2017-02-16T01:25:32.708Z,6.08
2017-02-16T01:26:32.766Z,6.05
2017-02-16T01:27:32.778Z,6.08
2017-02-16T01:28:32.765Z,6.07
2017-02-16T01:29:32.798Z,6.05
2017-02-16T01:30:32.803Z,5.97
2017-02-16T01:31:32.840Z,6.01
2017-02-16T01:32:32.839Z,5.99
2017-02-16T01:33:32.887Z,6.09
2017-02-16T01:34:32.889Z,5.99
2017-02-16T01:35:32.897Z,5.99
2017-02-16T01:36:32.890Z,5.99
2017-02-16T01:37:32.896Z,5.94
2017-02-16T01:38:32.940Z,6.05
2017-02-16T01:39:32.967Z,6.02
2017-02-16T01:40:32.981Z,6.02
2017-02-16T01:41:32.981Z,6.02
2017-02-16T01:42:32.977Z,5.97
2017-02-16T01:43:33.007Z,5.99
2017-02-16T01:44:33.004Z,5.98
2017-02-16T01:45:33.124Z,5.99
2017-02-16T01:46:33.113Z,5.97
2017-02-16T01:47:33.121Z,5.97
2017-02-16T01:48:32.726Z,5.87
2017-02-16T01:49:33.122Z,5.99
2017-02-16T01:50:33.003Z,5.97
2017-02-16T01:51:33.009Z,6.04
2017-02-16T01:52:33.005Z,5.98
2017-02-16T01:53:33.039Z,5.99
2017-02-16T01:54:33.048Z,5.89
2017-02-16T01:55:33.048Z,5.94
2017-02-16T01:56:33.064Z,5.94
2017-02-16T01:57:33.077Z,5.93
2017-02-16T01:58:33.106Z,5.94
2017-02-16T01:59:33.089Z,5.98
2017-02-16T02:00:33.108Z,5.98
2017-02-16T02:01:33.123Z,5.94
2017-02-16T02:02:33.143Z,5.91
2017-02-16T02:03:33.146Z,5.99
2017-02-16T02:04:33.150Z,5.91
2017-02-16T02:05:33.172Z,5.79
2017-02-16T02:06:33.180Z,5.94
2017-02-16T02:07:33.204Z,5.89
2017-02-16T02:08:33.211Z,5.89
2017-02-16T02:09:33.221Z,5.89
2017-02-16T02:10:33.229Z,5.93
2017-02-16T02:11:33.254Z,5.94
2017-02-16T02:12:33.240Z,5.93
2017-02-16T02:13:32.875Z,5.9
2017-02-16T02:14:33.274Z,5.9
2017-02-16T02:15:33.288Z,5.93
2017-02-16T02:16:33.288Z,5.87
2017-02-16T02:17:33.310Z,5.9
2017-02-16T02:18:33.326Z,5.86
2017-02-16T02:19:33.328Z,5.83
2017-02-16T02:20:32.942Z,5.84
2017-02-16T02:21:33.358Z,5.8
2017-02-16T02:22:33.387Z,5.79
2017-02-16T02:23:33.380Z,5.84
2017-02-16T02:24:33.405Z,5.79
2017-02-16T02:25:33.396Z,5.8
2017-02-16T02:26:33.516Z,5.8
2017-02-16T02:27:33.523Z,5.82
2017-02-16T02:28:33.042Z,5.8
2017-02-16T02:29:33.446Z,5.8
2017-02-16T02:30:33.514Z,5.82
2017-02-16T02:31:33.487Z,5.79
2017-02-16T02:32:33.525Z,5.79
2017-02-16T02:33:33.543Z,5.8
2017-02-16T02:34:33.618Z,5.75
2017-02-16T02:35:33.554Z,5.73
2017-02-16T02:36:33.564Z,5.69
2017-02-16T02:37:33.564Z,5.79
2017-02-16T02:38:33.569Z,5.66
2017-02-16T02:39:33.667Z,5.66
2017-02-16T02:40:33.663Z,5.75
2017-02-16T02:41:33.676Z,5.79
2017-02-16T02:42:33.686Z,5.68
2017-02-16T02:43:33.694Z,5.64
2017-02-16T02:44:33.715Z,5.72
2017-02-16T02:45:33.707Z,5.71
2017-02-16T02:46:33.713Z,5.73
2017-02-16T02:47:33.714Z,5.72
2017-02-16T02:48:33.275Z,5.66
2017-02-16T02:49:33.744Z,5.68
2017-02-16T02:50:33.740Z,5.57
2017-02-16T02:51:33.793Z,5.65
2017-02-16T02:52:33.788Z,5.65
2017-02-16T02:53:33.792Z,5.62
2017-02-16T02:54:33.850Z,5.64
2017-02-16T02:55:33.860Z,5.66
2017-02-16T02:56:33.487Z,5.64
2017-02-16T02:57:33.858Z,5.66
2017-02-16T02:58:33.616Z,5.72
2017-02-16T02:59:34.034Z,5.66
2017-02-16T03:00:34.038Z,5.68
2017-02-16T03:01:34.050Z,5.66
2017-02-16T03:02:34.042Z,5.66
2017-02-16T03:03:34.011Z,5.68
2017-02-16T03:04:34.046Z,5.59
2017-02-16T03:05:34.079Z,5.71
2017-02-16T03:06:34.077Z,5.57
2017-02-16T03:07:34.079Z,5.57
2017-02-16T03:08:34.081Z,5.56
2017-02-16T03:09:34.097Z,5.56
2017-02-16T03:10:34.217Z,5.62
2017-02-16T03:11:34.146Z,5.57
2017-02-16T03:12:34.156Z,5.66
2017-02-16T03:13:34.156Z,5.61
2017-02-16T03:14:34.158Z,5.56
2017-02-16T03:15:34.164Z,5.61
2017-02-16T03:16:34.169Z,5.59
2017-02-16T03:17:34.187Z,5.57
2017-02-16T03:18:34.191Z,5.61
2017-02-16T03:19:34.197Z,5.53
2017-02-16T03:20:34.289Z,5.5
2017-02-16T03:21:34.215Z,5.56
2017-02-16T03:22:34.227Z,5.51
2017-02-16T03:23:34.172Z,5.5
2017-02-16T03:24:34.182Z,5.53
2017-02-16T03:25:34.215Z,5.5
2017-02-16T03:26:34.189Z,5.48
2017-02-16T03:27:34.209Z,5.62
2017-02-16T03:28:34.206Z,5.54
2017-02-16T03:29:34.236Z,5.5
2017-02-16T03:30:34.250Z,5.62
2017-02-16T03:31:34.242Z,5.5
2017-02-16T03:32:34.259Z,5.54
2017-02-16T03:33:34.234Z,5.59
2017-02-16T03:34:34.254Z,5.5
2017-02-16T03:35:34.333Z,5.56
2017-02-16T03:36:34.283Z,5.57
2017-02-16T03:37:34.282Z,5.53
2017-02-16T03:38:34.246Z,5.5
2017-02-16T03:39:34.257Z,5.48
2017-02-16T03:40:34.284Z,5.47
2017-02-16T03:41:34.288Z,5.53
2017-02-16T03:42:34.310Z,5.47
2017-02-16T03:43:34.320Z,5.47
2017-02-16T03:44:34.306Z,5.47
2017-02-16T03:45:34.340Z,5.5
2017-02-16T03:46:34.352Z,5.39
2017-02-16T03:47:33.950Z,5.46
2017-02-16T03:48:33.971Z,5.46
2017-02-16T03:49:34.381Z,5.47
2017-02-16T03:50:34.384Z,5.48
2017-02-16T03:51:34.395Z,5.47
2017-02-16T03:52:34.416Z,5.44
2017-02-16T03:53:34.416Z,5.47
2017-02-16T03:54:34.446Z,5.48
2017-02-16T03:55:34.451Z,5.39
2017-02-16T03:56:34.457Z,5.44
2017-02-16T03:57:34.073Z,5.46
2017-02-16T03:58:34.481Z,5.46
2017-02-16T03:59:34.095Z,5.43
2017-02-16T04:00:34.518Z,5.46
2017-02-16T04:01:34.110Z,5.44
2017-02-16T04:02:34.523Z,5.43
2017-02-16T04:03:34.132Z,5.43
2017-02-16T04:04:34.555Z,5.44
2017-02-16T04:05:34.153Z,5.41
2017-02-16T04:06:34.588Z,5.44
2017-02-16T04:07:34.578Z,5.44
2017-02-16T04:08:34.605Z,5.38
2017-02-16T04:09:34.611Z,5.44
2017-02-16T04:10:34.736Z,5.39
2017-02-16T04:11:34.633Z,5.38
2017-02-16T04:12:34.659Z,5.44
2017-02-16T04:13:34.668Z,5.44
2017-02-16T04:14:34.657Z,5.51
2017-02-16T04:15:34.701Z,5.43
2017-02-16T04:16:34.733Z,5.36
2017-02-16T04:17:34.722Z,5.44
2017-02-16T04:18:34.730Z,5.39
2017-02-16T04:19:34.714Z,5.39
2017-02-16T04:20:34.756Z,5.44
2017-02-16T04:21:34.766Z,5.32
2017-02-16T04:22:34.775Z,5.35
2017-02-16T04:23:34.774Z,5.44
2017-02-16T04:24:34.783Z,5.33
2017-02-16T04:25:34.884Z,5.32
2017-02-16T04:26:34.803Z,5.33
2017-02-16T04:27:34.808Z,5.3
2017-02-16T04:28:34.868Z,5.32
2017-02-16T04:29:34.877Z,5.29
2017-02-16T04:30:34.885Z,5.26
2017-02-16T04:31:34.894Z,5.32
2017-02-16T04:32:34.890Z,5.38
2017-02-16T04:33:34.901Z,5.38
2017-02-16T04:34:34.911Z,5.36
2017-02-16T04:35:34.908Z,5.28
2017-02-16T04:36:35.032Z,5.29
2017-02-16T04:37:34.947Z,5.29
2017-02-16T04:38:34.948Z,5.28
2017-02-16T04:39:34.942Z,5.3
2017-02-16T04:40:35.064Z,5.33
2017-02-16T04:41:35.065Z,5.32
2017-02-16T04:42:35.086Z,5.36
2017-02-16T04:43:35.075Z,5.32
2017-02-16T04:44:35.095Z,5.38
2017-02-16T04:45:35.123Z,5.3
2017-02-16T04:46:35.154Z,5.3
2017-02-16T04:47:35.105Z,5.29
2017-02-16T04:48:35.163Z,5.36
2017-02-16T04:49:35.150Z,5.35
2017-02-16T04:50:35.179Z,5.29
2017-02-16T04:51:34.754Z,5.33
2017-02-16T04:52:34.779Z,5.32
2017-02-16T04:53:35.181Z,5.29
2017-02-16T04:54:34.716Z,5.26
2017-02-16T04:55:34.736Z,5.21
2017-02-16T04:56:35.146Z,5.29
2017-02-16T04:57:35.156Z,5.32
2017-02-16T04:58:35.160Z,5.25
2017-02-16T04:59:35.187Z,5.23
2017-02-16T05:00:35.174Z,5.23
2017-02-16T05:01:35.198Z,5.21
2017-02-16T05:02:35.369Z,5.21
2017-02-16T05:03:35.216Z,5.28
2017-02-16T05:04:35.215Z,5.32
2017-02-16T05:05:35.253Z,5.26
2017-02-16T05:06:35.261Z,5.29
2017-02-16T05:07:34.865Z,5.2
2017-02-16T05:08:35.273Z,5.25
2017-02-16T05:09:34.896Z,5.17
2017-02-16T05:10:35.548Z,5.17
2017-02-16T05:11:35.348Z,5.23
2017-02-16T05:12:35.313Z,5.25
2017-02-16T05:13:35.339Z,5.25
2017-02-16T05:14:35.336Z,5.15
2017-02-16T05:15:34.975Z,5.23
2017-02-16T05:16:35.358Z,5.15
2017-02-16T05:17:35.384Z,5.3
2017-02-16T05:18:35.385Z,5.23
2017-02-16T05:19:35.399Z,5.25
2017-02-16T05:20:35.413Z,5.18
2017-02-16T05:21:35.423Z,5.26
2017-02-16T05:22:35.439Z,5.2
2017-02-16T05:23:35.047Z,5.28
2017-02-16T05:24:35.445Z,5.2
2017-02-16T05:25:35.695Z,5.23
2017-02-16T05:26:35.493Z,5.23
2017-02-16T05:27:35.480Z,5.17
2017-02-16T05:28:35.509Z,5.2
2017-02-16T05:29:35.503Z,5.26
2017-02-16T05:30:35.525Z,5.2
2017-02-16T05:31:35.531Z,5.21
2017-02-16T05:32:35.536Z,5.25
2017-02-16T05:33:35.547Z,5.21
2017-02-16T05:34:35.578Z,5.21
2017-02-16T05:35:35.187Z,5.2
2017-02-16T05:36:35.185Z,5.2
2017-02-16T05:37:35.609Z,5.26
2017-02-16T05:38:35.613Z,5.28
2017-02-16T05:39:35.615Z,5.29
2017-02-16T05:40:35.645Z,5.23
2017-02-16T05:41:35.634Z,5.23
2017-02-16T05:42:35.248Z,5.23
2017-02-16T05:43:35.270Z,5.23
2017-02-16T05:44:35.678Z,5.21
2017-02-16T05:45:35.683Z,5.23
2017-02-16T05:46:35.696Z,5.18
2017-02-16T05:47:35.708Z,5.21
2017-02-16T05:48:35.726Z,5.23
2017-02-16T05:49:35.731Z,5.2
2017-02-16T05:50:35.750Z,5.2
2017-02-16T05:51:35.763Z,5.21
2017-02-16T05:52:35.772Z,5.23
2017-02-16T05:53:35.405Z,5.18
2017-02-16T05:54:35.791Z,5.2
2017-02-16T05:55:35.793Z,5.2
2017-02-16T05:56:35.811Z,5.2
2017-02-16T05:57:35.813Z,5.23
2017-02-16T05:58:35.824Z,5.2
2017-02-16T05:59:35.845Z,5.2
2017-02-16T06:00:35.859Z,5.25
2017-02-16T06:01:35.867Z,5.18
2017-02-16T06:02:35.877Z,5.18
2017-02-16T06:03:35.902Z,5.17
2017-02-16T06:04:35.913Z,5.2
2017-02-16T06:05:35.912Z,5.18
2017-02-16T06:06:35.931Z,5.2
2017-02-16T06:07:35.933Z,5.18
2017-02-16T06:08:35.989Z,5.23
2017-02-16T06:09:35.957Z,5.18
2017-02-16T06:10:35.966Z,5.17
2017-02-16T06:11:35.994Z,5.17
2017-02-16T06:12:35.977Z,5.18
2017-02-16T06:13:35.998Z,5.2
2017-02-16T06:14:36.055Z,5.18
2017-02-16T06:15:36.029Z,5.21
2017-02-16T06:16:36.041Z,5.14
2017-02-16T06:17:35.639Z,5.15
2017-02-16T06:18:36.069Z,5.21
2017-02-16T06:19:36.075Z,5.17
2017-02-16T06:20:36.073Z,5.26
2017-02-16T06:21:36.092Z,5.2
2017-02-16T06:22:36.101Z,5.15
2017-02-16T06:23:36.130Z,5.18
2017-02-16T06:24:36.116Z,5.2
2017-02-16T06:25:36.183Z,5.14
2017-02-16T06:26:36.147Z,5.14
2017-02-16T06:27:36.164Z,5.17
2017-02-16T06:28:36.156Z,5.2
2017-02-16T06:29:36.171Z,5.21
2017-02-16T06:30:36.193Z,5.18
2017-02-16T06:31:36.196Z,5.18
2017-02-16T06:32:36.215Z,5.17
2017-02-16T06:33:36.309Z,5.15
2017-02-16T06:34:36.232Z,5.17
2017-02-16T06:35:36.239Z,5.15
2017-02-16T06:36:36.254Z,5.15
2017-02-16T06:37:36.495Z,5.18
2017-02-16T06:38:36.279Z,5.21
2017-02-16T06:39:36.301Z,5.21
2017-02-16T06:40:36.306Z,5.18
2017-02-16T06:41:36.329Z,5.2
2017-02-16T06:42:36.019Z,5.2
2017-02-16T06:43:36.437Z,5.23
2017-02-16T06:44:36.426Z,5.21
2017-02-16T06:45:36.355Z,5.2
2017-02-16T06:46:36.472Z,5.25
2017-02-16T06:47:36.474Z,5.17
2017-02-16T06:48:36.378Z,5.18
2017-02-16T06:49:36.490Z,5.1
2017-02-16T06:50:36.594Z,5.26
2017-02-16T06:51:36.525Z,5.18
2017-02-16T06:52:36.434Z,5.18
2017-02-16T06:53:36.447Z,5.25
2017-02-16T06:54:36.453Z,5.2
2017-02-16T06:55:36.484Z,5.25
2017-02-16T06:56:36.478Z,5.23
2017-02-16T06:57:36.094Z,5.25
2017-02-16T06:58:36.500Z,5.18
2017-02-16T06:59:36.560Z,5.17
2017-02-16T07:00:36.130Z,5.25
2017-02-16T07:01:36.532Z,5.28
2017-02-16T07:02:36.539Z,5.32
2017-02-16T07:03:36.552Z,5.15
2017-02-16T07:04:36.565Z,5.2
2017-02-16T07:05:36.577Z,5.25
2017-02-16T07:06:36.580Z,5.2
2017-02-16T07:07:36.600Z,5.17
2017-02-16T07:08:36.622Z,5.21
2017-02-16T07:09:36.621Z,5.28
2017-02-16T07:10:36.627Z,5.25
2017-02-16T07:11:36.653Z,5.23
2017-02-16T07:12:36.651Z,5.26
2017-02-16T07:13:36.675Z,5.23
2017-02-16T07:14:36.686Z,5.26
2017-02-16T07:15:36.692Z,5.29
2017-02-16T07:16:36.690Z,5.26
2017-02-16T07:17:36.700Z,5.33
2017-02-16T07:18:36.714Z,5.26
2017-02-16T07:19:36.735Z,5.33
2017-02-16T07:20:36.785Z,5.33
2017-02-16T07:21:36.759Z,5.35
2017-02-16T07:22:36.764Z,5.33
2017-02-16T07:23:36.782Z,5.33
2017-02-16T07:24:36.805Z,5.33
2017-02-16T07:25:36.849Z,5.38
2017-02-16T07:26:36.860Z,5.3
2017-02-16T07:27:36.861Z,5.33
2017-02-16T07:28:36.869Z,5.28
2017-02-16T07:29:36.840Z,5.32
2017-02-16T07:30:36.849Z,5.35
2017-02-16T07:31:36.859Z,5.36
2017-02-16T07:32:36.888Z,5.43
2017-02-16T07:33:36.892Z,5.48
2017-02-16T07:34:36.895Z,5.38
2017-02-16T07:35:36.910Z,5.38
2017-02-16T07:36:36.934Z,5.41
2017-02-16T07:37:36.945Z,5.43
2017-02-16T07:38:37.014Z,5.41
2017-02-16T07:39:37.079Z,5.44
2017-02-16T07:40:37.041Z,5.43
2017-02-16T07:41:36.976Z,5.46
2017-02-16T07:42:37.024Z,5.47
2017-02-16T07:43:37.004Z,5.46
2017-02-16T07:44:37.014Z,5.47
2017-02-16T07:45:37.001Z,5.43
2017-02-16T07:46:37.144Z,5.48
2017-02-16T07:47:37.031Z,5.5
2017-02-16T07:48:37.044Z,5.5
2017-02-16T07:49:36.662Z,5.53
2017-02-16T07:50:37.090Z,5.47
2017-02-16T07:51:37.082Z,5.48
2017-02-16T07:52:37.098Z,5.53
2017-02-16T07:53:37.112Z,5.56
2017-02-16T07:54:37.129Z,5.57
2017-02-16T07:55:37.129Z,5.65
2017-02-16T07:56:37.150Z,5.61
2017-02-16T07:57:37.155Z,5.61
2017-02-16T07:58:37.164Z,5.64
2017-02-16T07:59:37.195Z,5.73
2017-02-16T08:00:37.175Z,5.61
2017-02-16T08:01:37.195Z,5.69
2017-02-16T08:02:37.206Z,5.66
2017-02-16T08:03:36.829Z,5.71
2017-02-16T08:04:37.232Z,5.79
2017-02-16T08:05:37.231Z,5.8
2017-02-16T08:06:36.853Z,5.79
2017-02-16T08:07:37.255Z,5.83
2017-02-16T08:08:37.273Z,5.83
2017-02-16T08:09:37.287Z,5.83
2017-02-16T08:10:37.302Z,5.89
2017-02-16T08:11:37.298Z,5.94
2017-02-16T08:12:37.319Z,5.94
2017-02-16T08:13:37.343Z,5.97
2017-02-16T08:14:36.947Z,6.02
2017-02-16T08:15:37.355Z,5.94
2017-02-16T08:16:37.376Z,5.93
2017-02-16T08:17:37.375Z,5.87
2017-02-16T08:18:37.392Z,5.98
2017-02-16T08:19:37.411Z,5.98
2017-02-16T08:20:37.417Z,5.98
2017-02-16T08:21:37.425Z,5.99
2017-02-16T08:22:37.429Z,5.97
2017-02-16T08:23:37.453Z,6.04
2017-02-16T08:24:37.443Z,6.07
2017-02-16T08:25:37.466Z,6.11
2017-02-16T08:26:37.486Z,6.11
2017-02-16T08:27:37.482Z,6.14
2017-02-16T08:28:37.499Z,6.12
2017-02-16T08:29:37.128Z,6.14
2017-02-16T08:30:37.512Z,6.26
2017-02-16T08:31:37.535Z,6.33
2017-02-16T08:32:37.566Z,6.27
2017-02-16T08:33:37.579Z,6.31
2017-02-16T08:34:37.577Z,6.31
2017-02-16T08:35:37.579Z,6.35
2017-02-16T08:36:37.590Z,6.28
2017-02-16T08:37:37.618Z,6.39
2017-02-16T08:38:37.626Z,6.52
2017-02-16T08:39:37.634Z,6.45
2017-02-16T08:40:37.640Z,6.51
2017-02-16T08:41:37.654Z,6.57
2017-02-16T08:42:37.665Z,6.56
2017-02-16T08:43:37.671Z,6.51
2017-02-16T08:44:37.682Z,6.49
2017-02-16T08:45:37.686Z,6.64
2017-02-16T08:46:37.711Z,6.57
2017-02-16T08:47:37.716Z,6.7
2017-02-16T08:48:37.735Z,6.63
2017-02-16T08:49:37.748Z,6.6
2017-02-16T08:50:37.755Z,6.64
2017-02-16T08:51:37.760Z,6.72
2017-02-16T08:52:37.775Z,6.77
2017-02-16T08:53:37.785Z,6.74
2017-02-16T08:54:37.798Z,6.78
2017-02-16T08:55:37.798Z,6.84
2017-02-16T08:56:37.822Z,6.82
2017-02-16T08:57:37.427Z,6.81
2017-02-16T08:58:37.868Z,6.87
2017-02-16T08:59:37.446Z,6.92
2017-02-16T09:00:37.858Z,6.93
2017-02-16T09:01:37.875Z,6.95
2017-02-16T09:02:37.895Z,6.88
2017-02-16T09:03:37.906Z,6.89
2017-02-16T09:04:37.919Z,7.03
2017-02-16T09:05:37.928Z,7.03
2017-02-16T09:06:37.921Z,7.11
2017-02-16T09:07:37.955Z,7.11
2017-02-16T09:08:37.966Z,7.17
2017-02-16T09:09:37.961Z,7.2
2017-02-16T09:10:37.584Z,7.15
2017-02-16T09:11:37.994Z,7.2
2017-02-16T09:12:38.035Z,7.29
2017-02-16T09:13:38.019Z,7.35
2017-02-16T09:14:38.146Z,7.29
2017-02-16T09:15:38.193Z,7.45
2017-02-16T09:16:38.200Z,7.4
2017-02-16T09:17:38.081Z,7.42
2017-02-16T09:18:38.074Z,7.45
2017-02-16T09:19:38.179Z,7.45
2017-02-16T09:20:38.106Z,7.53
2017-02-16T09:21:38.107Z,7.45
2017-02-16T09:22:38.133Z,7.45
2017-02-16T09:23:38.167Z,7.61
2017-02-16T09:24:38.166Z,7.6
2017-02-16T09:25:38.166Z,7.66
2017-02-16T09:26:38.158Z,7.72
2017-02-16T09:27:38.190Z,7.73
2017-02-16T09:28:38.206Z,7.69
2017-02-16T09:29:38.215Z,7.76
2017-02-16T09:30:38.228Z,7.77
2017-02-16T09:31:38.251Z,7.8
2017-02-16T09:32:38.255Z,7.83
2017-02-16T09:33:38.248Z,7.88
2017-02-16T09:34:38.270Z,7.93
2017-02-16T09:35:38.288Z,7.88
2017-02-16T09:36:38.296Z,7.93
2017-02-16T09:37:38.302Z,8.01
2017-02-16T09:38:38.317Z,7.93
2017-02-16T09:39:38.341Z,7.98
2017-02-16T09:40:38.356Z,8.01
2017-02-16T09:41:38.360Z,8.03
2017-02-16T09:42:38.372Z,8.03
2017-02-16T09:43:38.384Z,8.03
2017-02-16T09:44:38.391Z,8.06
2017-02-16T09:45:38.429Z,8.05
2017-02-16T09:46:38.405Z,8.1
2017-02-16T09:47:38.433Z,8.1
2017-02-16T09:48:38.053Z,8.16
2017-02-16T09:49:38.465Z,8.13
2017-02-16T09:50:38.569Z,8.27
2017-02-16T09:51:38.474Z,8.19
2017-02-16T09:52:38.505Z,8.27
2017-02-16T09:53:38.110Z,8.24
2017-02-16T09:54:38.131Z,8.34
2017-02-16T09:55:38.125Z,8.33
2017-02-16T09:56:38.540Z,8.33
2017-02-16T09:57:38.158Z,8.37
2017-02-16T09:58:38.572Z,8.37
2017-02-16T09:59:38.574Z,8.44
2017-02-16T10:00:38.593Z,8.41
2017-02-16T10:01:38.681Z,8.42
2017-02-16T10:02:38.626Z,8.48
2017-02-16T10:03:38.630Z,8.48
2017-02-16T10:04:38.646Z,8.58
2017-02-16T10:05:38.649Z,8.63
2017-02-16T10:06:38.681Z,8.69
2017-02-16T10:07:38.695Z,8.66
2017-02-16T10:08:38.683Z,8.74
2017-02-16T10:09:38.711Z,8.81
2017-02-16T10:10:38.717Z,8.76
2017-02-16T10:11:38.751Z,8.84
2017-02-16T10:12:38.749Z,8.81
2017-02-16T10:13:38.757Z,8.91
2017-02-16T10:14:38.763Z,9
2017-02-16T10:15:38.865Z,9
2017-02-16T10:16:38.787Z,9.04
2017-02-16T10:17:38.399Z,9.13
2017-02-16T10:18:38.822Z,9.19
2017-02-16T10:19:38.835Z,9.11
2017-02-16T10:20:38.838Z,9.16
2017-02-16T10:21:38.872Z,9.16
2017-02-16T10:22:38.914Z,9.28
2017-02-16T10:23:39.001Z,9.26
2017-02-16T10:24:38.601Z,9.39
2017-02-16T10:25:38.519Z,9.32
2017-02-16T10:26:39.062Z,9.44
2017-02-16T10:27:39.051Z,9.44
2017-02-16T10:28:38.991Z,9.44
2017-02-16T10:29:39.000Z,9.46
2017-02-16T10:30:38.965Z,9.54
2017-02-16T10:31:39.056Z,9.68
2017-02-16T10:32:39.080Z,9.69
2017-02-16T10:33:39.120Z,9.73
2017-02-16T10:34:39.102Z,9.61
2017-02-16T10:35:39.147Z,9.68
2017-02-16T10:36:39.074Z,9.69
2017-02-16T10:37:39.131Z,9.76
2017-02-16T10:38:39.150Z,9.79
2017-02-16T10:39:38.719Z,9.86
2017-02-16T10:40:39.237Z,9.82
2017-02-16T10:41:38.761Z,9.79
2017-02-16T10:42:38.733Z,9.83
2017-02-16T10:43:39.278Z,9.95
2017-02-16T10:44:39.255Z,9.95
2017-02-16T10:45:39.165Z,9.97
2017-02-16T10:46:39.270Z,10.07
2017-02-16T10:47:39.226Z,10.09
2017-02-16T10:48:39.223Z,10.09
2017-02-16T10:49:39.233Z,10.2
2017-02-16T10:50:39.241Z,10.1
2017-02-16T10:51:39.257Z,10.22
2017-02-16T10:52:39.278Z,10.19
2017-02-16T10:53:39.287Z,10.23
2017-02-16T10:54:39.306Z,10.3
2017-02-16T10:55:39.316Z,10.28
2017-02-16T10:56:39.362Z,10.33
2017-02-16T10:57:39.333Z,10.35
2017-02-16T10:58:39.357Z,10.31
2017-02-16T10:59:39.371Z,10.44
2017-02-16T11:00:39.364Z,10.42
2017-02-16T11:01:39.420Z,10.54
2017-02-16T11:02:39.410Z,10.53
2017-02-16T11:03:39.444Z,10.6
2017-02-16T11:04:39.429Z,10.6
2017-02-16T11:05:39.478Z,10.59
2017-02-16T11:06:39.455Z,10.74
2017-02-16T11:07:39.475Z,10.78
2017-02-16T11:08:39.489Z,10.75
2017-02-16T11:09:39.507Z,10.78
2017-02-16T11:10:39.526Z,10.68
2017-02-16T11:11:39.557Z,10.81
2017-02-16T11:12:39.530Z,10.79
2017-02-16T11:13:39.594Z,10.84
2017-02-16T11:14:39.570Z,10.81
2017-02-16T11:15:39.626Z,10.9
2017-02-16T11:16:39.603Z,10.94
2017-02-16T11:17:39.617Z,10.87
2017-02-16T11:18:39.622Z,10.97
2017-02-16T11:19:39.636Z,10.99
2017-02-16T11:20:39.658Z,11.02
2017-02-16T11:21:39.689Z,11.1
2017-02-16T11:22:39.681Z,11.15
2017-02-16T11:23:39.709Z,11.19
2017-02-16T11:24:39.714Z,11.19
2017-02-16T11:25:39.765Z,11.26
2017-02-16T11:26:39.760Z,11.3
2017-02-16T11:27:39.783Z,11.35
2017-02-16T11:28:39.387Z,11.37
2017-02-16T11:29:39.777Z,11.44
2017-02-16T11:30:39.808Z,11.37
2017-02-16T11:31:39.839Z,11.45
2017-02-16T11:32:39.837Z,11.5
2017-02-16T11:33:39.869Z,11.51
2017-02-16T11:34:39.876Z,11.51
2017-02-16T11:35:39.886Z,11.57
2017-02-16T11:36:39.882Z,11.54
2017-02-16T11:37:39.948Z,11.65
2017-02-16T11:38:39.905Z,11.62
2017-02-16T11:39:39.954Z,11.65
2017-02-16T11:40:39.947Z,11.63
2017-02-16T11:41:39.985Z,11.66
2017-02-16T11:42:39.993Z,11.7
2017-02-16T11:43:40.034Z,11.75
2017-02-16T11:44:40.003Z,11.72
2017-02-16T11:45:40.057Z,11.8
2017-02-16T11:46:40.056Z,11.75
2017-02-16T11:47:40.081Z,11.81
2017-02-16T11:48:40.085Z,11.87
2017-02-16T11:49:40.126Z,11.9
2017-02-16T11:50:40.102Z,11.86
2017-02-16T11:51:40.117Z,11.95
2017-02-16T11:52:40.137Z,12.04
2017-02-16T11:53:40.181Z,12.09
2017-02-16T11:54:40.265Z,12
2017-02-16T11:55:40.388Z,12.17
2017-02-16T11:56:40.386Z,12.17
2017-02-16T11:57:40.205Z,12.24
2017-02-16T11:58:40.226Z,12.21
2017-02-16T11:59:40.239Z,12.27
2017-02-16T12:00:40.251Z,12.24
2017-02-16T12:01:40.272Z,12.32
2017-02-16T12:02:40.281Z,12.31
2017-02-16T12:03:40.318Z,12.43
2017-02-16T12:04:40.312Z,12.45
2017-02-16T12:05:40.322Z,12.45
2017-02-16T12:06:40.354Z,12.47
2017-02-16T12:07:40.377Z,12.49
2017-02-16T12:08:40.374Z,12.57
2017-02-16T12:09:40.432Z,12.58
2017-02-16T12:10:40.417Z,12.64
2017-02-16T12:11:40.417Z,12.55
2017-02-16T12:12:40.430Z,12.65
2017-02-16T12:13:40.457Z,12.65
2017-02-16T12:14:40.453Z,12.65
2017-02-16T12:15:40.488Z,12.65
2017-02-16T12:16:40.505Z,12.76
2017-02-16T12:17:40.523Z,12.79
2017-02-16T12:18:40.525Z,12.75
2017-02-16T12:19:40.154Z,12.7
2017-02-16T12:20:40.573Z,12.78
2017-02-16T12:21:39.793Z,12.78
2017-02-16T12:22:40.615Z,12.75
2017-02-16T12:23:40.215Z,12.85
2017-02-16T12:24:40.627Z,12.85
2017-02-16T12:25:40.863Z,12.93
2017-02-16T12:26:40.665Z,12.93
2017-02-16T12:27:40.689Z,12.91
2017-02-16T12:28:40.698Z,12.94
2017-02-16T12:29:40.820Z,13.03
2017-02-16T12:30:40.729Z,12.91
2017-02-16T12:31:40.757Z,12.98
2017-02-16T12:32:40.753Z,13.04
2017-02-16T12:33:40.764Z,13.09
2017-02-16T12:34:40.793Z,13.05
2017-02-16T12:35:40.341Z,13.12
2017-02-16T12:36:40.056Z,13.15
2017-02-16T12:37:40.868Z,13.18
2017-02-16T12:38:40.544Z,13.19
2017-02-16T12:39:40.902Z,13.16
2017-02-16T12:40:40.903Z,13.22
2017-02-16T12:41:40.891Z,13.33
2017-02-16T12:42:40.995Z,13.28
2017-02-16T12:43:40.936Z,13.33
2017-02-16T12:44:40.951Z,13.37
2017-02-16T12:45:40.972Z,13.38
2017-02-16T12:46:40.990Z,13.3
2017-02-16T12:47:41.001Z,13.44
2017-02-16T12:48:41.022Z,13.37
2017-02-16T12:49:41.035Z,13.37
2017-02-16T12:50:41.042Z,13.46
2017-02-16T12:51:41.050Z,13.56
2017-02-16T12:52:41.098Z,13.5
2017-02-16T12:53:41.092Z,13.59
2017-02-16T12:54:41.128Z,13.6
2017-02-16T12:55:41.124Z,13.57
2017-02-16T12:56:41.148Z,13.63
2017-02-16T12:57:41.169Z,13.68
2017-02-16T12:58:41.171Z,13.68
2017-02-16T12:59:41.190Z,13.65
2017-02-16T13:00:41.246Z,13.78
2017-02-16T13:01:40.840Z,13.79
2017-02-16T13:02:40.866Z,13.75
2017-02-16T13:03:40.881Z,13.78
2017-02-16T13:04:41.293Z,13.78
2017-02-16T13:05:41.310Z,13.78
2017-02-16T13:06:40.942Z,13.74
2017-02-16T13:07:40.934Z,13.75
2017-02-16T13:08:41.354Z,13.81
2017-02-16T13:09:41.390Z,13.79
2017-02-16T13:10:40.969Z,13.79
2017-02-16T13:11:41.404Z,13.83
2017-02-16T13:12:41.506Z,13.85
2017-02-16T13:13:41.427Z,13.77
2017-02-16T13:14:41.437Z,13.83
2017-02-16T13:15:41.507Z,13.9
2017-02-16T13:16:41.579Z,13.86